KHIE

Details ICAO KHIE
Name MOUNT WASHINGTON RGNL
Region United States
Timezone America/New_York (UTC-4.0)
Plans Departing 5
Arriving 7
Stats Elevation 1,074 ft / 327 m (AMSL)
Location 44.367554° -71.545810°
Runways 1
Magnetic Variation 14.970° W
Sunrise 2018-05-26 09:10:20 UTC / 2018-05-26 05:10:20 Local
Sunset 2018-05-27 00:19:02 UTC / 2018-05-26 20:19:02 Local
Advertisement - Login to hide

Runways

ID Width Length Bearing (true) Bearing (mag) Surface Threshold Offset Overrun Length
10 75 ft / 23 m 3,991 ft / 1,217 m 87.13° 102.10° Asphalt 0 ft / 0 m 0 ft / 0 m
28 75 ft / 23 m 3,991 ft / 1,217 m 267.14° 282.11° Asphalt 0 ft / 0 m 0 ft / 0 m

Approach Navaids

Runway Type Ident Frequency Range Bearing (true) Bearing (mag) Slope Elevation
10 Localiser IHIE 109.50 MHz 18 nm / 33 km 87.14° 102.11° - 1,074 ft / 327 m (AMSL)

Map

Weather


0- 5 10 15 20 25 30 35+ Temperature / ° C

Clouds and Precipitation
Forecast for 2018-05-27 00:00 UTC. Updated 2 hours ago

Ground ~20,000 ft ~40,000 ft Winds

METAR

KHIE 270121Z AUTO 00000KT 1/2SM FG VV002 16/16 A2996 RMK AO2 T01610156

TAF

KHIE 270112Z 2701/2724 00000KT 1/4SM FG VV002 FM270600 08007KT P6SM OVC050 FM271300 10009KT P6SM OVC025

Frequencies

Recorded 118.52 MHz ASOS
Clearance 122.40 MHz CLNC DEL
Unicom 122.80 MHz CTAF/UNICOM
Warning: Do not use this data for real-world aviation or navigation. No guarantee of current accuracy is given.